createdAt,value
2018-06-09T00:01:02.900Z,17.70
2018-06-09T00:03:31.953Z,17.80
2018-06-09T00:06:01.038Z,17.70
2018-06-09T00:08:30.052Z,17.60
2018-06-09T00:10:59.881Z,17.50
2018-06-09T00:13:29.078Z,17.40
2018-06-09T00:15:58.115Z,17.50
2018-06-09T00:18:30.033Z,17.40
2018-06-09T00:20:59.074Z,17.40
2018-06-09T00:23:28.192Z,17.40
2018-06-09T00:25:57.282Z,17.30
2018-06-09T00:28:26.357Z,17.40
2018-06-09T00:30:55.988Z,17.40
2018-06-09T00:33:25.084Z,17.40
2018-06-09T00:35:54.211Z,17.40
2018-06-09T00:38:23.249Z,17.40
2018-06-09T00:40:53.029Z,17.40
2018-06-09T00:43:22.594Z,17.40
2018-06-09T00:45:51.417Z,17.30
2018-06-09T00:48:21.599Z,17.30
2018-06-09T00:50:50.670Z,17.30
2018-06-09T00:53:20.212Z,17.20
2018-06-09T00:55:49.292Z,17.10
2018-06-09T00:58:18.914Z,17.10
2018-06-09T01:00:47.984Z,17.10
2018-06-09T01:03:17.748Z,17.00
2018-06-09T01:05:46.904Z,17.00
2018-06-09T01:08:15.770Z,17.10
2018-06-09T01:10:44.907Z,17.20
2018-06-09T01:13:14.493Z,17.20
2018-06-09T01:15:43.456Z,17.20
2018-06-09T01:18:12.477Z,17.30
2018-06-09T01:20:41.444Z,17.30
2018-06-09T01:23:10.668Z,17.30
2018-06-09T01:25:39.745Z,17.30
2018-06-09T01:28:09.384Z,17.30
2018-06-09T01:30:38.436Z,17.40
2018-06-09T01:33:07.497Z,17.30
2018-06-09T01:35:36.535Z,17.40
2018-06-09T01:38:05.632Z,17.30
2018-06-09T01:40:34.715Z,17.30
2018-06-09T01:43:04.367Z,17.30
2018-06-09T01:45:33.483Z,17.30
2018-06-09T01:48:02.628Z,17.20
2018-06-09T01:50:32.096Z,17.10
2018-06-09T01:53:01.366Z,17.10
2018-06-09T01:55:30.849Z,17.10
2018-06-09T01:58:00.401Z,17.00
2018-06-09T02:00:30.250Z,17.00
2018-06-09T02:02:59.367Z,16.90
2018-06-09T02:05:28.840Z,16.90
2018-06-09T02:07:58.060Z,16.90
2018-06-09T02:10:27.156Z,16.90
2018-06-09T02:12:56.141Z,16.80
2018-06-09T02:15:25.259Z,16.80
2018-06-09T02:17:54.239Z,16.70
2018-06-09T02:20:23.591Z,16.70
2018-06-09T02:22:52.851Z,16.70
2018-06-09T02:25:21.941Z,16.70
2018-06-09T02:27:50.905Z,16.60
2018-06-09T02:30:19.905Z,16.60
2018-06-09T02:32:49.020Z,16.60
2018-06-09T02:35:18.091Z,16.60
2018-06-09T02:37:47.554Z,16.50
2018-06-09T02:40:16.580Z,16.50
2018-06-09T02:42:45.852Z,16.50
2018-06-09T02:45:15.493Z,16.40
2018-06-09T02:47:44.500Z,16.40
2018-06-09T02:50:13.505Z,16.40
2018-06-09T02:52:42.475Z,16.40
2018-06-09T02:55:11.614Z,16.40
2018-06-09T02:57:40.666Z,16.30
2018-06-09T03:00:10.013Z,16.30
2018-06-09T03:02:39.497Z,16.30
2018-06-09T03:05:08.873Z,16.30
2018-06-09T03:07:37.889Z,16.30
2018-06-09T03:10:06.981Z,16.30
2018-06-09T03:12:36.077Z,16.30
2018-06-09T03:15:05.165Z,16.30
2018-06-09T03:17:34.809Z,16.30
2018-06-09T03:20:03.884Z,16.20
2018-06-09T03:22:33.180Z,16.20
2018-06-09T03:25:02.599Z,16.20
2018-06-09T03:27:31.647Z,16.20
2018-06-09T03:30:01.004Z,16.20
2018-06-09T03:32:30.063Z,16.10
2018-06-09T03:34:59.508Z,16.20
2018-06-09T03:37:28.545Z,16.20
2018-06-09T03:39:57.448Z,16.20
2018-06-09T03:42:26.440Z,16.20
2018-06-09T03:44:55.417Z,16.20
2018-06-09T03:47:24.531Z,16.20
2018-06-09T03:49:54.370Z,16.30
2018-06-09T03:52:23.829Z,16.30
2018-06-09T03:54:53.047Z,16.30
2018-06-09T03:57:22.620Z,16.30
2018-06-09T03:59:52.116Z,16.40
2018-06-09T04:02:21.230Z,16.40
2018-06-09T04:04:50.361Z,16.40
2018-06-09T04:07:19.436Z,16.30
2018-06-09T04:09:49.136Z,16.20
2018-06-09T04:12:18.248Z,16.20
2018-06-09T04:14:47.324Z,16.20
2018-06-09T04:17:16.770Z,16.20
2018-06-09T04:19:46.284Z,16.20
2018-06-09T04:22:15.301Z,16.30
2018-06-09T04:24:44.316Z,16.40
2018-06-09T04:27:13.556Z,16.40
2018-06-09T04:29:43.602Z,16.40
2018-06-09T04:32:12.630Z,16.50
2018-06-09T04:34:42.927Z,16.40
2018-06-09T04:37:12.980Z,16.40
2018-06-09T04:39:42.093Z,16.40
2018-06-09T04:42:11.202Z,16.40
2018-06-09T04:44:40.243Z,16.50
2018-06-09T04:47:10.148Z,16.60
2018-06-09T04:49:39.657Z,16.70
2018-06-09T04:52:08.707Z,16.80
2018-06-09T04:54:38.570Z,16.90
2018-06-09T04:57:07.828Z,17.00
2018-06-09T04:59:37.597Z,17.00
2018-06-09T05:02:06.830Z,17.00
2018-06-09T05:04:35.903Z,17.10
2018-06-09T05:07:04.989Z,17.20
2018-06-09T05:09:34.012Z,17.20
2018-06-09T05:12:03.512Z,17.30
2018-06-09T05:17:01.891Z,17.40
2018-06-09T05:19:31.409Z,17.40
2018-06-09T05:22:00.485Z,17.50
2018-06-09T05:24:29.677Z,17.70
2018-06-09T05:26:59.228Z,17.70
2018-06-09T05:29:28.369Z,17.70
2018-06-09T05:31:57.296Z,17.80
2018-06-09T05:34:26.552Z,17.80
2018-06-09T05:36:55.789Z,17.80
2018-06-09T05:39:24.964Z,17.90
2018-06-09T05:41:54.102Z,17.90
2018-06-09T05:44:23.468Z,18.00
2018-06-09T05:46:53.267Z,18.00
2018-06-09T05:49:22.706Z,18.10
2018-06-09T05:54:21.098Z,18.30
2018-06-09T05:56:50.158Z,18.40
2018-06-09T05:59:19.267Z,18.50
2018-06-09T06:01:48.380Z,18.50
2018-06-09T06:04:17.472Z,18.60
2018-06-09T06:06:46.556Z,18.70
2018-06-09T06:09:15.648Z,18.80
2018-06-09T06:11:44.989Z,18.90
2018-06-09T06:14:14.221Z,19.00
2018-06-09T06:16:43.325Z,19.00
2018-06-09T06:19:13.678Z,19.20
2018-06-09T06:21:43.184Z,19.30
2018-06-09T06:24:12.320Z,19.40
2018-06-09T06:26:41.466Z,19.50
2018-06-09T06:29:11.193Z,19.60
2018-06-09T06:31:40.252Z,19.70
2018-06-09T06:34:10.641Z,19.80
2018-06-09T06:36:40.210Z,20.00
2018-06-09T06:39:10.008Z,20.10
2018-06-09T06:41:39.120Z,20.20
2018-06-09T06:44:08.176Z,20.10
2018-06-09T06:46:37.420Z,20.00
2018-06-09T06:49:07.091Z,19.90
2018-06-09T06:51:36.225Z,19.90
2018-06-09T06:54:05.373Z,19.90
2018-06-09T06:56:34.523Z,19.90
2018-06-09T06:59:04.992Z,20.00
2018-06-09T07:01:34.520Z,20.10
2018-06-09T07:04:03.532Z,20.30
2018-06-09T07:06:32.497Z,20.40
2018-06-09T07:09:02.269Z,20.50
2018-06-09T07:11:31.566Z,20.60
2018-06-09T07:14:01.562Z,20.70
2018-06-09T07:16:30.755Z,20.90
2018-06-09T07:19:00.244Z,21.00
2018-06-09T07:21:30.154Z,21.20
2018-06-09T07:23:59.361Z,21.30
2018-06-09T07:26:28.454Z,21.50
2018-06-09T07:28:57.524Z,21.80
2018-06-09T07:31:26.459Z,22.00
2018-06-09T07:33:55.508Z,22.30
2018-06-09T07:36:25.040Z,22.60
2018-06-09T07:38:54.135Z,22.70
2018-06-09T07:41:23.947Z,22.90
2018-06-09T07:43:53.045Z,23.00
2018-06-09T07:46:22.134Z,23.10
2018-06-09T07:48:51.445Z,23.00
2018-06-09T07:51:20.505Z,23.20
2018-06-09T07:53:49.592Z,23.20
2018-06-09T07:56:19.141Z,23.30
2018-06-09T07:58:48.122Z,23.30
2018-06-09T08:01:17.227Z,23.50
2018-06-09T08:03:46.317Z,23.70
2018-06-09T08:06:15.552Z,23.90
2018-06-09T08:08:44.800Z,23.90
2018-06-09T08:11:13.779Z,23.90
2018-06-09T08:13:43.012Z,24.10
2018-06-09T08:16:12.921Z,24.20
2018-06-09T08:18:41.921Z,24.40
2018-06-09T08:21:11.411Z,24.50
2018-06-09T08:23:40.616Z,24.60
2018-06-09T08:26:09.685Z,24.70
2018-06-09T08:28:38.698Z,24.70
2018-06-09T08:31:07.817Z,24.80
2018-06-09T08:33:37.787Z,24.90
2018-06-09T08:36:06.923Z,24.90
2018-06-09T08:38:36.919Z,25.10
2018-06-09T08:41:06.150Z,25.10
2018-06-09T08:43:35.852Z,25.10
2018-06-09T08:46:04.899Z,25.00
2018-06-09T08:48:34.788Z,24.90
2018-06-09T08:51:03.893Z,24.90
2018-06-09T08:53:32.936Z,24.90
2018-06-09T08:56:03.046Z,25.00
2018-06-09T08:58:32.148Z,25.00
2018-06-09T09:01:01.742Z,24.90
2018-06-09T09:03:30.880Z,24.80
2018-06-09T09:06:00.438Z,25.00
2018-06-09T09:08:29.965Z,25.30
2018-06-09T09:10:58.981Z,25.40
2018-06-09T09:13:28.159Z,25.40
2018-06-09T09:15:57.164Z,25.30
2018-06-09T09:18:26.201Z,25.20
2018-06-09T09:20:55.242Z,25.30
2018-06-09T09:23:24.316Z,25.40
2018-06-09T09:25:53.467Z,25.70
2018-06-09T09:28:22.500Z,25.80
2018-06-09T09:30:51.620Z,26.00
2018-06-09T09:33:21.077Z,25.90
2018-06-09T09:35:50.714Z,26.00
2018-06-09T09:38:19.732Z,26.00
2018-06-09T09:40:48.801Z,26.20
2018-06-09T09:43:17.916Z,26.30
2018-06-09T09:45:47.540Z,26.20
2018-06-09T09:50:45.999Z,26.20
2018-06-09T09:53:15.780Z,26.30
2018-06-09T09:55:44.884Z,26.40
2018-06-09T09:58:14.028Z,26.50
2018-06-09T10:00:43.477Z,26.50
2018-06-09T10:03:14.275Z,26.50
2018-06-09T10:05:44.184Z,26.60
2018-06-09T10:08:13.343Z,26.70
2018-06-09T10:10:42.518Z,26.80
2018-06-09T10:13:11.540Z,27.00
2018-06-09T10:15:40.649Z,27.00
2018-06-09T10:18:09.664Z,27.30
2018-06-09T10:20:38.622Z,27.30
2018-06-09T10:23:07.667Z,27.30
2018-06-09T10:25:36.841Z,26.90
2018-06-09T10:28:05.897Z,26.70
2018-06-09T10:30:34.899Z,26.90
2018-06-09T10:33:03.993Z,27.20
2018-06-09T10:35:33.080Z,27.00
2018-06-09T10:38:02.725Z,26.90
2018-06-09T10:40:32.416Z,26.90
2018-06-09T10:43:01.872Z,27.30
2018-06-09T10:45:31.498Z,27.60
2018-06-09T10:48:00.589Z,27.70
2018-06-09T10:50:29.620Z,27.80
2018-06-09T10:52:58.690Z,27.90
2018-06-09T10:55:28.035Z,27.90
2018-06-09T10:57:56.974Z,28.00
2018-06-09T11:00:26.235Z,28.20
2018-06-09T11:02:56.102Z,28.20
2018-06-09T11:05:25.301Z,28.10
2018-06-09T11:07:54.405Z,28.40
2018-06-09T11:10:23.565Z,28.50
2018-06-09T11:12:53.207Z,28.50
2018-06-09T11:15:22.296Z,28.40
2018-06-09T11:17:51.415Z,28.70
2018-06-09T11:20:20.464Z,28.90
2018-06-09T11:22:49.723Z,29.20
2018-06-09T11:25:19.135Z,29.10
2018-06-09T11:27:48.166Z,29.20
2018-06-09T11:30:17.285Z,28.90
2018-06-09T11:32:46.460Z,29.00
2018-06-09T11:35:16.406Z,28.70
2018-06-09T11:37:45.593Z,28.70
2018-06-09T11:40:15.036Z,28.70
2018-06-09T11:42:44.684Z,28.70
2018-06-09T11:45:13.883Z,28.80
2018-06-09T11:47:43.008Z,28.90
2018-06-09T11:50:13.874Z,28.90
2018-06-09T11:52:43.044Z,29.20
2018-06-09T11:55:13.135Z,29.50
2018-06-09T11:57:42.461Z,29.60
2018-06-09T12:00:11.643Z,29.40
2018-06-09T12:02:40.733Z,28.80
2018-06-09T12:05:09.862Z,29.00
2018-06-09T12:07:38.829Z,28.90
2018-06-09T12:10:07.928Z,29.10
2018-06-09T12:12:37.088Z,29.00
2018-06-09T12:15:07.118Z,29.30
2018-06-09T12:17:36.220Z,29.10
2018-06-09T12:20:05.550Z,28.90
2018-06-09T12:22:34.606Z,28.80
2018-06-09T12:25:04.174Z,29.20
2018-06-09T12:27:33.294Z,29.30
2018-06-09T12:30:02.420Z,29.20
2018-06-09T12:32:31.433Z,29.00
2018-06-09T12:35:00.591Z,29.20
2018-06-09T12:37:29.699Z,29.30
2018-06-09T12:39:58.793Z,29.60
2018-06-09T12:42:28.656Z,29.60
2018-06-09T12:44:57.788Z,29.90
2018-06-09T12:47:26.880Z,30.00
2018-06-09T12:49:55.984Z,30.00
2018-06-09T12:52:25.198Z,30.10
2018-06-09T12:54:54.726Z,29.90
2018-06-09T12:59:52.647Z,30.20
2018-06-09T13:02:22.529Z,30.10
2018-06-09T13:04:52.200Z,29.80
2018-06-09T13:07:21.213Z,29.60
2018-06-09T13:09:50.278Z,29.80
2018-06-09T13:12:19.632Z,30.00
2018-06-09T13:14:49.273Z,30.00
2018-06-09T13:17:18.389Z,30.00
2018-06-09T13:19:47.640Z,30.30
2018-06-09T13:22:16.909Z,30.30
2018-06-09T13:24:46.229Z,30.40
2018-06-09T13:27:15.297Z,30.50
2018-06-09T13:29:44.367Z,30.50
2018-06-09T13:32:13.647Z,30.30
2018-06-09T13:34:42.797Z,30.30
2018-06-09T13:37:11.848Z,30.20
2018-06-09T13:39:41.360Z,30.20
2018-06-09T13:42:11.067Z,30.20
2018-06-09T13:44:40.588Z,30.30
2018-06-09T13:47:09.671Z,30.40
2018-06-09T13:49:39.119Z,30.40
2018-06-09T13:52:08.383Z,30.40
2018-06-09T13:54:37.510Z,30.30
2018-06-09T13:57:06.684Z,30.40
2018-06-09T13:59:35.771Z,30.30
2018-06-09T14:02:05.096Z,30.20
2018-06-09T14:04:34.722Z,30.50
2018-06-09T14:07:03.985Z,30.60
2018-06-09T14:09:33.384Z,30.60
2018-06-09T14:12:02.481Z,30.60
2018-06-09T14:14:32.018Z,30.40
2018-06-09T14:17:01.180Z,30.20
2018-06-09T14:19:30.612Z,30.20
2018-06-09T14:21:59.773Z,30.20
2018-06-09T14:24:29.034Z,30.00
2018-06-09T14:26:58.139Z,29.90
2018-06-09T14:29:27.063Z,29.90
2018-06-09T14:31:56.057Z,29.90
2018-06-09T14:34:25.149Z,29.70
2018-06-09T14:36:55.018Z,29.90
2018-06-09T14:39:24.148Z,29.80
2018-06-09T14:41:53.574Z,29.80
2018-06-09T14:44:22.662Z,29.90
2018-06-09T14:46:51.645Z,30.00
2018-06-09T14:49:21.094Z,29.90
2018-06-09T14:56:47.515Z,29.80
2018-06-09T14:59:16.728Z,29.80
2018-06-09T15:01:46.212Z,29.90
2018-06-09T15:04:16.044Z,30.10
2018-06-09T15:06:45.128Z,30.10
2018-06-09T15:09:14.833Z,30.20
2018-06-09T15:11:43.928Z,30.20
2018-06-09T15:14:13.028Z,30.10
2018-06-09T15:16:42.688Z,30.30
2018-06-09T15:19:12.010Z,30.50
2018-06-09T15:21:41.190Z,30.50
2018-06-09T15:24:10.415Z,30.40
2018-06-09T15:26:40.078Z,30.10
2018-06-09T15:29:09.847Z,29.90
2018-06-09T15:31:39.129Z,29.50
2018-06-09T15:34:08.661Z,29.20
2018-06-09T15:36:37.852Z,28.90
2018-06-09T15:39:08.449Z,28.70
2018-06-09T15:41:38.073Z,28.50
2018-06-09T15:44:08.939Z,28.50
2018-06-09T15:46:38.183Z,28.40
2018-06-09T15:49:07.536Z,28.50
2018-06-09T15:51:36.644Z,28.40
2018-06-09T15:54:05.925Z,28.30
2018-06-09T15:56:35.373Z,28.20
2018-06-09T15:59:04.496Z,28.10
2018-06-09T16:01:33.720Z,28.10
2018-06-09T16:04:03.945Z,28.20
2018-06-09T16:06:33.853Z,28.10
2018-06-09T16:09:03.212Z,28.10
2018-06-09T16:11:32.749Z,28.00
2018-06-09T16:14:02.181Z,27.90
2018-06-09T16:16:31.501Z,27.80
2018-06-09T16:19:01.329Z,27.80
2018-06-09T16:21:30.340Z,27.70
2018-06-09T16:23:59.502Z,27.70
2018-06-09T16:26:28.833Z,27.70
2018-06-09T16:28:57.944Z,27.60
2018-06-09T16:31:27.097Z,27.50
2018-06-09T16:33:56.158Z,27.40
2018-06-09T16:36:25.281Z,27.40
2018-06-09T16:38:54.327Z,27.20
2018-06-09T16:41:23.510Z,27.20
2018-06-09T16:43:52.605Z,27.10
2018-06-09T16:46:21.636Z,27.00
2018-06-09T16:48:51.000Z,26.80
2018-06-09T16:51:20.376Z,26.80
2018-06-09T16:53:50.189Z,26.70
2018-06-09T16:56:19.204Z,26.60
2018-06-09T16:58:48.345Z,26.50
2018-06-09T17:01:17.504Z,26.40
2018-06-09T17:03:46.646Z,26.20
2018-06-09T17:06:16.016Z,26.20
2018-06-09T17:08:45.577Z,26.10
2018-06-09T17:11:14.698Z,26.00
2018-06-09T17:13:43.920Z,26.00
2018-06-09T17:16:13.078Z,26.00
2018-06-09T17:18:42.112Z,26.00
2018-06-09T17:21:11.208Z,25.80
2018-06-09T17:23:41.033Z,25.70
2018-06-09T17:26:10.136Z,25.60
2018-06-09T17:28:39.208Z,25.60
2018-06-09T17:31:08.407Z,25.50
2018-06-09T17:33:37.938Z,25.50
2018-06-09T17:38:36.733Z,25.40
2018-06-09T17:41:05.711Z,25.30
2018-06-09T17:43:34.732Z,25.30
2018-06-09T17:46:03.681Z,25.40
2018-06-09T17:48:32.773Z,25.30
2018-06-09T17:51:01.857Z,25.30
2018-06-09T17:53:31.320Z,25.30
2018-06-09T17:56:00.361Z,25.30
2018-06-09T17:58:29.999Z,25.30
2018-06-09T18:00:59.084Z,25.30
2018-06-09T18:03:28.162Z,25.40
2018-06-09T18:05:57.592Z,25.50
2018-06-09T18:08:26.659Z,25.40
2018-06-09T18:10:56.204Z,25.40
2018-06-09T18:13:25.888Z,25.30
2018-06-09T18:15:54.973Z,25.20
2018-06-09T18:18:24.491Z,25.10
2018-06-09T18:20:53.564Z,25.10
2018-06-09T18:23:23.628Z,25.00
2018-06-09T18:25:53.000Z,24.90
2018-06-09T18:28:21.994Z,24.80
2018-06-09T18:30:50.996Z,24.80
2018-06-09T18:33:20.090Z,24.80
2018-06-09T18:35:49.064Z,24.80
2018-06-09T18:38:18.173Z,24.80
2018-06-09T18:40:47.378Z,24.70
2018-06-09T18:43:17.117Z,24.70
2018-06-09T18:45:46.166Z,24.60
2018-06-09T18:48:15.301Z,24.50
2018-06-09T18:50:44.870Z,24.40
2018-06-09T18:53:14.014Z,24.40
2018-06-09T18:55:43.160Z,24.30
2018-06-09T18:58:12.341Z,24.20
2018-06-09T19:00:41.450Z,24.10
2018-06-09T19:03:11.049Z,24.00
2018-06-09T19:05:40.192Z,24.00
2018-06-09T19:08:09.235Z,23.90
2018-06-09T19:10:38.265Z,23.80
2018-06-09T19:13:07.836Z,23.80
2018-06-09T19:15:36.883Z,23.70
2018-06-09T19:18:06.062Z,23.70
2018-06-09T19:20:35.123Z,23.60
2018-06-09T19:23:04.335Z,23.50
2018-06-09T19:25:33.337Z,23.50
2018-06-09T19:28:02.428Z,23.40
2018-06-09T19:30:31.611Z,23.30
2018-06-09T19:33:00.973Z,23.30
2018-06-09T19:35:30.020Z,23.30
2018-06-09T19:37:59.111Z,23.20
2018-06-09T19:40:28.225Z,23.20
2018-06-09T19:42:57.684Z,23.10
2018-06-09T19:45:26.984Z,23.10
2018-06-09T19:47:56.113Z,23.10
2018-06-09T19:50:25.232Z,23.00
2018-06-09T19:55:23.474Z,23.00
2018-06-09T19:57:52.597Z,22.90
2018-06-09T20:00:22.113Z,22.90
2018-06-09T20:02:51.623Z,22.80
2018-06-09T20:05:20.759Z,22.80
2018-06-09T20:07:49.937Z,22.80
2018-06-09T20:10:19.069Z,22.70
2018-06-09T20:12:48.161Z,22.70
2018-06-09T20:15:17.444Z,22.70
2018-06-09T20:17:46.588Z,22.60
2018-06-09T20:20:15.696Z,22.60
2018-06-09T20:22:44.747Z,22.60
2018-06-09T20:25:14.215Z,22.60
2018-06-09T20:30:12.489Z,22.60
2018-06-09T20:32:41.760Z,22.50
2018-06-09T20:35:11.237Z,22.50
2018-06-09T20:37:40.815Z,22.40
2018-06-09T20:40:10.204Z,22.40
2018-06-09T20:45:08.753Z,22.30
2018-06-09T20:47:38.346Z,22.30
2018-06-09T20:50:07.716Z,22.30
2018-06-09T20:52:37.394Z,22.20
2018-06-09T20:55:06.490Z,22.20
2018-06-09T20:57:36.256Z,22.20
2018-06-09T21:00:05.633Z,22.20
2018-06-09T21:02:36.622Z,22.10
2018-06-09T21:05:06.688Z,22.10
2018-06-09T21:07:37.422Z,22.10
2018-06-09T21:10:07.631Z,22.10
2018-06-09T21:12:37.249Z,22.00
2018-06-09T21:15:07.139Z,21.90
2018-06-09T21:17:36.676Z,21.90
2018-06-09T21:20:06.578Z,21.90
2018-06-09T21:22:35.901Z,21.90
2018-06-09T21:25:05.557Z,22.00
2018-06-09T21:27:39.666Z,22.00
2018-06-09T21:30:13.871Z,22.10
2018-06-09T21:32:44.244Z,22.10
2018-06-09T21:35:29.652Z,22.10
2018-06-09T21:38:03.865Z,22.10
2018-06-09T21:40:38.256Z,22.00
2018-06-09T21:43:12.549Z,22.00
2018-06-09T21:45:47.404Z,22.00
2018-06-09T21:48:16.990Z,22.00
2018-06-09T21:50:46.071Z,21.80
2018-06-09T21:53:15.403Z,21.70
2018-06-09T21:55:44.550Z,21.70
2018-06-09T21:58:13.666Z,21.70
2018-06-09T22:00:42.904Z,21.70
2018-06-09T22:03:12.230Z,21.70
2018-06-09T22:05:41.353Z,21.70
2018-06-09T22:08:10.564Z,21.60
2018-06-09T22:10:39.929Z,21.60
2018-06-09T22:13:09.070Z,21.50
2018-06-09T22:15:38.790Z,21.40
2018-06-09T22:18:07.940Z,21.40
2018-06-09T22:20:38.217Z,21.30
2018-06-09T22:23:08.403Z,21.30
2018-06-09T22:26:44.533Z,21.20
2018-06-09T22:29:13.680Z,21.20
2018-06-09T22:31:43.005Z,21.10
2018-06-09T22:34:12.489Z,21.10
2018-06-09T22:36:41.556Z,21.00
2018-06-09T22:39:10.745Z,20.90
2018-06-09T22:41:39.869Z,20.80
2018-06-09T22:44:09.672Z,20.80
2018-06-09T22:46:38.897Z,20.70
2018-06-09T22:49:07.964Z,20.60
2018-06-09T22:51:37.440Z,20.40
2018-06-09T22:54:06.536Z,20.40
2018-06-09T22:56:35.634Z,20.50
2018-06-09T22:59:04.903Z,20.50
2018-06-09T23:01:34.129Z,20.50
2018-06-09T23:04:03.899Z,20.60
2018-06-09T23:06:32.982Z,20.60
2018-06-09T23:11:31.331Z,20.60
2018-06-09T23:14:01.247Z,20.50
2018-06-09T23:16:30.365Z,20.50
2018-06-09T23:18:59.460Z,20.40
2018-06-09T23:21:28.608Z,20.40
2018-06-09T23:23:57.729Z,20.40
2018-06-09T23:26:26.897Z,20.40
2018-06-09T23:28:56.137Z,20.50
2018-06-09T23:31:25.021Z,20.50
2018-06-09T23:33:54.157Z,20.40
2018-06-09T23:36:23.669Z,20.40
2018-06-09T23:38:53.163Z,20.40
2018-06-09T23:43:50.948Z,20.40
2018-06-09T23:46:20.631Z,20.40
2018-06-09T23:48:49.613Z,20.40
2018-06-09T23:51:19.065Z,20.40
2018-06-09T23:53:48.226Z,20.30
2018-06-09T23:56:17.327Z,20.20
2018-06-09T23:58:46.814Z,20.20
